TimeCST,TemperatureF,Dew PointF,Humidity,Sea Level PressureIn,VisibilityMPH,Wind Direction,Wind SpeedMPH,Gust SpeedMPH,PrecipitationIn,Events,Conditions,WindDirDegrees,DateUTC
12:56 AM,15.1,12.0,88,30.45,-9999.0,Calm,Calm,-,N/A,,Unknown,0,2013-01-04 06:56:00
1:56 AM,12.9,9.0,84,30.45,-9999.0,North,3.5,-,N/A,,Unknown,10,2013-01-04 07:56:00
2:56 AM,12.0,9.0,88,30.43,-9999.0,NNE,4.6,-,N/A,,Unknown,30,2013-01-04 08:56:00
3:56 AM,12.0,9.0,88,30.43,-9999.0,Calm,Calm,-,N/A,,Unknown,0,2013-01-04 09:56:00
4:56 AM,12.0,8.1,84,30.43,-9999.0,Calm,Calm,-,N/A,,Unknown,0,2013-01-04 10:56:00
5:56 AM,12.0,8.1,84,30.42,-9999.0,Calm,Calm,-,N/A,,Unknown,0,2013-01-04 11:56:00
6:56 AM,14.0,9.0,80,30.43,-9999.0,SSE,3.5,-,N/A,,Unknown,160,2013-01-04 12:56:00
7:56 AM,12.0,7.0,80,30.43,-9999.0,Calm,Calm,-,N/A,,Unknown,0,2013-01-04 13:56:00
8:56 AM,16.0,10.9,81,30.39,-9999.0,Calm,Calm,-,N/A,,Unknown,0,2013-01-04 14:56:00
9:56 AM,21.9,18.0,85,30.47,-9999.0,Variable,3.5,-,N/A,,Unknown,0,2013-01-04 15:56:00
10:56 AM,32.0,21.9,66,30.41,-9999.0,WSW,5.8,-,N/A,,Unknown,250,2013-01-04 16:56:00
11:56 AM,36.0,21.0,55,30.38,-9999.0,WSW,12.7,-,N/A,,Unknown,250,2013-01-04 17:56:00
12:56 PM,39.9,23.0,51,30.35,-9999.0,West,15.0,-,N/A,,Unknown,260,2013-01-04 18:56:00
1:56 PM,42.1,25.0,51,30.32,-9999.0,SSW,11.5,17.3,N/A,,Unknown,210,2013-01-04 19:56:00
2:56 PM,44.1,27.0,51,30.30,-9999.0,SW,6.9,-,N/A,,Unknown,230,2013-01-04 20:56:00
3:56 PM,45.0,27.0,49,30.28,-9999.0,WNW,6.9,-,N/A,,Unknown,290,2013-01-04 21:56:00
4:56 PM,43.0,27.0,53,30.27,-9999.0,Calm,Calm,-,N/A,,Unknown,0,2013-01-04 22:56:00
5:56 PM,39.9,27.0,60,30.28,-9999.0,Calm,Calm,-,N/A,,Unknown,0,2013-01-04 23:56:00
6:56 PM,37.9,25.0,60,30.27,-9999.0,SSW,11.5,-,N/A,,Unknown,200,2013-01-05 00:56:00
7:56 PM,36.0,25.0,64,30.31,-9999.0,South,8.1,-,N/A,,Unknown,180,2013-01-05 01:56:00
8:56 PM,34.0,24.1,67,30.29,-9999.0,South,9.2,-,N/A,,Unknown,190,2013-01-05 02:56:00
9:56 PM,34.0,25.0,70,30.25,-9999.0,South,6.9,-,N/A,,Unknown,190,2013-01-05 03:56:00
10:56 PM,35.1,26.1,70,30.28,-9999.0,South,6.9,-,N/A,,Unknown,180,2013-01-05 04:56:00
11:56 PM,34.0,26.1,73,30.21,-9999.0,South,10.4,-,N/A,,Unknown,170,2013-01-05 05:56:00